Terminal Aerodrome Forecast
Issued by NWS

Home | Current Version | Previous Version | Text Only | Print | Product List | Glossary On
Versions: 1 2 3 4 5 6 7 8 9 10 11 12 13 14 15 16
489
FTAK31 PAJN 260158 AAA
TAFAPG
TAF AMD
PAPG 260158Z 2602/2624 VRB03KT P6SM -SHRA FEW012 SCT030 OVC050
      TEMPO 2602/2604 6SM -SHRA BR SCT004 BKN025 OVC050
     FM260600 VRB03KT P6SM VCSH SCT025 OVC035
      AMD LTD TO CLD VIS AND WIND 2606/2615=

USA.gov is the U.S. government's official web portal to all federal, state and local government web resources and services.